Terminal Aerodrome Forecast
Issued by NWS Upton, NY

Current Version | Previous Version | Text Only | Print | Product List | Glossary On
Versions: 1 2 3 4 5 6 7 8 9 10 11 12 13 14 15 16 17 18 19 20 21 22 23 24 25 26 27 28 29
000
FTUS41 KOKX 300539
TAFJFK
TAF
KJFK 300539Z 3006/3112 22008KT P6SM SCT250
     FM301100 21010KT 6SM HZ VCSH FEW030 SCT080 BKN250
     FM301500 20016KT 6SM HZ BKN050 PROB30 3021/3024 3SM TSRA
      BKN030CB
     FM310000 22012KT 6SM -SHRA BKN040
     FM310300 23009KT P6SM SCT050 BKN080
     FM310500 28007KT P6SM BKN080
     FM310700 31007KT P6SM SKC=

USA.gov is the U.S. government's official web portal to all federal, state and local government web resources and services.